createdAt,value
2023-04-22T04:00:48.157Z,996.17
2023-04-22T04:01:48.632Z,996.15
2023-04-22T04:02:48.757Z,996.14
2023-04-22T04:03:48.765Z,996.13
2023-04-22T04:04:48.981Z,996.12
2023-04-22T04:05:48.622Z,996.12
2023-04-22T04:06:48.584Z,996.10
2023-04-22T04:07:48.612Z,996.07
2023-04-22T04:08:48.565Z,996.06
2023-04-22T04:09:48.545Z,996.03
2023-04-22T04:10:48.535Z,996.02
2023-04-22T04:11:48.513Z,996.00
2023-04-22T04:12:48.551Z,995.99
2023-04-22T04:13:48.508Z,995.99
2023-04-22T04:14:48.489Z,995.99
2023-04-22T04:15:48.505Z,996.00
2023-04-22T04:16:48.466Z,996.00
2023-04-22T04:17:48.616Z,996.02
2023-04-22T04:18:48.445Z,996.01
2023-04-22T04:19:48.437Z,996.01
2023-04-22T04:20:48.423Z,996.01
2023-04-22T04:21:48.411Z,996.00
2023-04-22T04:22:48.430Z,996.02
2023-04-22T04:23:48.388Z,996.01
2023-04-22T04:24:48.388Z,996.01
2023-04-22T04:25:48.375Z,996.01
2023-04-22T04:26:48.374Z,996.02
2023-04-22T04:27:48.410Z,996.01
2023-04-22T04:28:48.339Z,996.01
2023-04-22T04:29:48.322Z,996.00
2023-04-22T04:30:48.312Z,996.00
2023-04-22T04:31:48.477Z,996.00
2023-04-22T04:32:48.387Z,996.00
2023-04-22T04:33:48.269Z,996.02
2023-04-22T04:34:48.279Z,996.02
2023-04-22T04:35:48.269Z,996.03
2023-04-22T04:36:48.258Z,996.04
2023-04-22T04:37:48.307Z,996.04
2023-04-22T04:38:48.219Z,996.05
2023-04-22T04:39:48.206Z,996.05
2023-04-22T04:40:48.211Z,996.06
2023-04-22T04:41:48.194Z,996.07
2023-04-22T04:42:48.221Z,996.08
2023-04-22T04:43:48.179Z,996.06
2023-04-22T04:44:48.158Z,996.06
2023-04-22T04:45:48.866Z,996.04
2023-04-22T04:46:48.189Z,996.01
2023-04-22T04:47:48.190Z,996.00
2023-04-22T04:48:48.116Z,995.99
2023-04-22T04:49:48.109Z,995.99
2023-04-22T04:50:48.102Z,995.97
2023-04-22T04:51:48.103Z,995.95
2023-04-22T04:52:48.070Z,995.95
2023-04-22T04:53:48.058Z,995.92
2023-04-22T04:54:48.059Z,995.90
2023-04-22T04:55:48.051Z,995.89
2023-04-22T04:56:48.050Z,995.88
2023-04-22T04:57:48.049Z,995.89
2023-04-22T04:58:48.019Z,995.88
2023-04-22T04:59:48.002Z,995.89
2023-04-22T05:00:47.985Z,995.89
2023-04-22T05:01:48.036Z,995.89
2023-04-22T05:02:48.156Z,995.89
2023-04-22T05:03:48.146Z,995.90
2023-04-22T05:04:48.086Z,995.89
2023-04-22T05:05:47.933Z,995.88
2023-04-22T05:06:47.946Z,995.85
2023-04-22T05:07:47.917Z,995.83
2023-04-22T05:08:47.917Z,995.83
2023-04-22T05:09:47.884Z,995.83
2023-04-22T05:10:47.896Z,995.82
2023-04-22T05:11:47.895Z,995.82
2023-04-22T05:12:47.878Z,995.82
2023-04-22T05:13:47.850Z,995.81
2023-04-22T05:14:47.840Z,995.80
2023-04-22T05:15:47.835Z,995.80
2023-04-22T05:16:47.919Z,995.80
2023-04-22T05:17:47.836Z,995.80
2023-04-22T05:18:47.807Z,995.81
2023-04-22T05:19:47.804Z,995.82
2023-04-22T05:20:47.786Z,995.83
2023-04-22T05:21:47.777Z,995.83
2023-04-22T05:22:47.778Z,995.84
2023-04-22T05:23:47.746Z,995.86
2023-04-22T05:24:47.738Z,995.86
2023-04-22T05:25:47.724Z,995.86
2023-04-22T05:26:47.779Z,995.85
2023-04-22T05:27:47.705Z,995.84
2023-04-22T05:28:47.700Z,995.82
2023-04-22T05:29:47.681Z,995.79
2023-04-22T05:30:47.688Z,995.78
2023-04-22T05:31:47.778Z,995.77
2023-04-22T05:32:47.721Z,995.76
2023-04-22T05:33:47.640Z,995.77
2023-04-22T05:34:47.642Z,995.77
2023-04-22T05:35:47.622Z,995.77
2023-04-22T05:36:47.603Z,995.78
2023-04-22T05:37:47.632Z,995.79
2023-04-22T05:38:47.591Z,995.79
2023-04-22T05:39:47.581Z,995.81
2023-04-22T05:40:47.570Z,995.82
2023-04-22T05:41:47.583Z,995.83
2023-04-22T05:42:47.574Z,995.83
2023-04-22T05:43:47.540Z,995.83
2023-04-22T05:44:47.517Z,995.82
2023-04-22T05:45:47.565Z,995.80
2023-04-22T05:46:47.516Z,995.78
2023-04-22T05:47:47.559Z,995.77
2023-04-22T05:48:47.480Z,995.76
2023-04-22T05:49:47.467Z,995.75
2023-04-22T05:50:47.475Z,995.75
2023-04-22T05:51:47.460Z,995.75
2023-04-22T05:52:47.456Z,995.77
2023-04-22T05:53:47.431Z,995.78
2023-04-22T05:54:47.418Z,995.78
2023-04-22T05:55:47.418Z,995.79
2023-04-22T05:56:47.443Z,995.80
2023-04-22T05:57:47.396Z,995.79
2023-04-22T05:58:47.373Z,995.80
2023-04-22T05:59:47.373Z,995.82
2023-04-22T06:00:47.345Z,995.82
2023-04-22T06:01:47.374Z,995.81
2023-04-22T06:02:47.455Z,995.82
2023-04-22T06:03:47.591Z,995.83
2023-04-22T06:04:47.544Z,995.83
2023-04-22T06:05:47.320Z,995.83
2023-04-22T06:06:47.284Z,995.83
2023-04-22T06:07:47.334Z,995.82
2023-04-22T06:08:47.271Z,995.83
2023-04-22T06:09:47.270Z,995.82
2023-04-22T06:10:47.244Z,995.83
2023-04-22T06:11:47.238Z,995.81
2023-04-22T06:12:47.255Z,995.80
2023-04-22T06:13:47.221Z,995.77
2023-04-22T06:14:47.199Z,995.75
2023-04-22T06:15:47.225Z,995.73
2023-04-22T06:16:47.187Z,995.71
2023-04-22T06:17:47.294Z,995.71
2023-04-22T06:18:47.166Z,995.72
2023-04-22T06:19:47.150Z,995.72
2023-04-22T06:20:47.216Z,995.71
2023-04-22T06:21:47.129Z,995.70
2023-04-22T06:22:47.134Z,995.70
2023-04-22T06:23:47.126Z,995.72
2023-04-22T06:24:48.242Z,995.71
2023-04-22T06:25:47.091Z,995.72
2023-04-22T06:26:47.090Z,995.74
2023-04-22T06:27:47.168Z,995.74
2023-04-22T06:28:47.182Z,995.72
2023-04-22T06:29:47.055Z,995.70
2023-04-22T06:30:47.028Z,995.70
2023-04-22T06:31:47.136Z,995.71
2023-04-22T06:32:47.050Z,995.70
2023-04-22T06:33:47.026Z,995.70
2023-04-22T06:34:46.978Z,995.69
2023-04-22T06:35:46.981Z,995.70
2023-04-22T06:36:46.960Z,995.70
2023-04-22T06:37:46.991Z,995.70
2023-04-22T06:38:46.945Z,995.69
2023-04-22T06:39:46.943Z,995.68
2023-04-22T06:40:46.920Z,995.68
2023-04-22T06:41:46.922Z,995.68
2023-04-22T06:42:46.926Z,995.68
2023-04-22T06:43:46.892Z,995.67
2023-04-22T06:44:46.878Z,995.67
2023-04-22T06:45:46.890Z,995.67
2023-04-22T06:46:46.940Z,995.66
2023-04-22T06:47:46.874Z,995.64
2023-04-22T06:48:46.851Z,995.64
2023-04-22T06:49:46.866Z,995.62
2023-04-22T06:50:46.821Z,995.63
2023-04-22T06:51:46.857Z,995.62
2023-04-22T06:52:46.800Z,995.63
2023-04-22T06:53:46.777Z,995.63
2023-04-22T06:54:46.770Z,995.65
2023-04-22T06:55:46.758Z,995.66
2023-04-22T06:56:46.749Z,995.65
2023-04-22T06:57:46.786Z,995.67
2023-04-22T06:58:46.719Z,995.66
2023-04-22T06:59:47.123Z,995.66
2023-04-22T07:00:46.695Z,995.64
2023-04-22T07:01:46.747Z,995.64
2023-04-22T07:02:46.726Z,995.65
2023-04-22T07:03:46.738Z,995.65
2023-04-22T07:04:46.654Z,995.66
2023-04-22T07:05:46.646Z,995.66
2023-04-22T07:06:46.640Z,995.66
2023-04-22T07:07:46.614Z,995.65
2023-04-22T07:08:46.603Z,995.65
2023-04-22T07:09:46.609Z,995.64
2023-04-22T07:10:46.579Z,995.66
2023-04-22T07:11:46.591Z,995.65
2023-04-22T07:12:46.582Z,995.66
2023-04-22T07:13:46.561Z,995.67
2023-04-22T07:14:46.541Z,995.68
2023-04-22T07:15:46.536Z,995.69
2023-04-22T07:16:46.601Z,995.70
2023-04-22T07:17:46.549Z,995.69
2023-04-22T07:18:46.495Z,995.68
2023-04-22T07:19:46.489Z,995.66
2023-04-22T07:20:46.475Z,995.64
2023-04-22T07:21:46.477Z,995.63
2023-04-22T07:22:46.482Z,995.62
2023-04-22T07:23:46.457Z,995.60
2023-04-22T07:24:46.444Z,995.60
2023-04-22T07:25:46.419Z,995.60
2023-04-22T07:26:46.424Z,995.59
2023-04-22T07:27:46.414Z,995.58
2023-04-22T07:28:46.386Z,995.58
2023-04-22T07:29:46.375Z,995.59
2023-04-22T07:30:46.373Z,995.61
2023-04-22T07:31:46.386Z,995.59
2023-04-22T07:32:48.322Z,995.59
2023-04-22T07:33:46.338Z,995.59
2023-04-22T07:34:46.313Z,995.59
2023-04-22T07:35:46.316Z,995.58
2023-04-22T07:36:46.353Z,995.55
2023-04-22T07:37:46.291Z,995.54
2023-04-22T07:38:46.276Z,995.52
2023-04-22T07:39:46.284Z,995.52
2023-04-22T07:40:46.258Z,995.51
2023-04-22T07:41:46.267Z,995.49
2023-04-22T07:42:46.251Z,995.48
2023-04-22T07:43:46.233Z,995.47
2023-04-22T07:44:46.215Z,995.47
2023-04-22T07:45:46.222Z,995.44
2023-04-22T07:46:46.193Z,995.45
2023-04-22T07:47:46.253Z,995.45
2023-04-22T07:48:46.170Z,995.46
2023-04-22T07:49:46.181Z,995.48
2023-04-22T07:50:46.149Z,995.49
2023-04-22T07:51:46.140Z,995.49
2023-04-22T07:52:46.148Z,995.49
2023-04-22T07:53:46.122Z,995.49
2023-04-22T07:54:46.166Z,995.51
2023-04-22T07:55:46.113Z,995.51
2023-04-22T07:56:46.080Z,995.52
2023-04-22T07:57:46.102Z,995.51
2023-04-22T07:58:46.056Z,995.52
2023-04-22T07:59:46.044Z,995.53
2023-04-22T08:00:46.076Z,995.51
2023-04-22T08:01:46.053Z,995.52
2023-04-22T08:02:46.097Z,995.53
2023-04-22T08:03:46.167Z,995.52
2023-04-22T08:04:46.056Z,995.53
2023-04-22T08:05:45.984Z,995.52
2023-04-22T08:06:45.996Z,995.52
2023-04-22T08:07:45.983Z,995.52
2023-04-22T08:08:45.963Z,995.53
2023-04-22T08:09:45.957Z,995.52
2023-04-22T08:10:45.939Z,995.50
2023-04-22T08:11:45.957Z,995.52
2023-04-22T08:12:45.955Z,995.50
2023-04-22T08:13:45.908Z,995.46
2023-04-22T08:14:45.895Z,995.45
2023-04-22T08:15:45.939Z,995.43
2023-04-22T08:16:45.871Z,995.43
2023-04-22T08:17:45.895Z,995.40
2023-04-22T08:18:45.890Z,995.40
2023-04-22T08:19:45.852Z,995.39
2023-04-22T08:20:45.829Z,995.38
2023-04-22T08:21:45.836Z,995.34
2023-04-22T08:22:45.811Z,995.35
2023-04-22T08:23:45.859Z,995.32
2023-04-22T08:24:45.798Z,995.35
2023-04-22T08:25:45.777Z,995.30
2023-04-22T08:26:45.761Z,995.31
2023-04-22T08:27:45.785Z,995.31
2023-04-22T08:28:45.745Z,995.32
2023-04-22T08:29:45.728Z,995.30
2023-04-22T08:30:45.729Z,995.31
2023-04-22T08:31:45.803Z,995.26
2023-04-22T08:32:45.750Z,995.29
2023-04-22T08:33:45.683Z,995.30
2023-04-22T08:34:46.614Z,995.25
2023-04-22T08:35:45.674Z,995.25
2023-04-22T08:36:45.665Z,995.20
2023-04-22T08:37:45.649Z,995.17
2023-04-22T08:38:46.182Z,995.18
2023-04-22T08:39:45.622Z,995.12
2023-04-22T08:40:45.610Z,995.06
2023-04-22T08:41:45.625Z,995.10
2023-04-22T08:42:45.594Z,995.12
2023-04-22T08:43:45.594Z,995.12
2023-04-22T08:44:45.568Z,995.03
2023-04-22T08:45:45.560Z,995.09
2023-04-22T08:46:45.598Z,995.03
2023-04-22T08:47:45.547Z,995.00
2023-04-22T08:48:45.561Z,995.07
2023-04-22T08:49:45.513Z,995.02
2023-04-22T08:50:45.500Z,994.99
2023-04-22T08:51:45.489Z,994.97
2023-04-22T08:52:45.510Z,994.99
2023-04-22T08:53:45.478Z,994.99
2023-04-22T08:54:45.459Z,994.99
2023-04-22T08:55:45.458Z,994.99
2023-04-22T08:56:45.472Z,994.96
2023-04-22T08:57:45.451Z,994.95
2023-04-22T08:58:45.412Z,994.93
2023-04-22T08:59:45.429Z,994.94
2023-04-22T09:00:45.398Z,994.97
2023-04-22T09:01:45.486Z,994.97
2023-04-22T09:02:45.409Z,994.99
2023-04-22T09:03:45.507Z,995.00
2023-04-22T09:04:45.359Z,994.99
2023-04-22T09:05:45.345Z,995.06
2023-04-22T09:06:45.337Z,994.89
2023-04-22T09:07:45.334Z,994.98
2023-04-22T09:08:45.320Z,994.99
2023-04-22T09:09:45.341Z,994.95
2023-04-22T09:10:45.304Z,994.95
2023-04-22T09:11:45.294Z,994.83
2023-04-22T09:12:45.264Z,994.94
2023-04-22T09:13:45.281Z,994.94
2023-04-22T09:14:45.238Z,994.93
2023-04-22T09:15:45.261Z,994.91
2023-04-22T09:16:45.253Z,994.89
2023-04-22T09:17:45.242Z,994.91
2023-04-22T09:18:45.245Z,994.94
2023-04-22T09:19:45.222Z,994.89
2023-04-22T09:20:45.176Z,994.85
2023-04-22T09:21:47.032Z,994.87
2023-04-22T09:22:45.184Z,994.86
2023-04-22T09:23:45.169Z,994.88
2023-04-22T09:24:45.141Z,994.75
2023-04-22T09:25:45.129Z,994.86
2023-04-22T09:26:45.119Z,994.84
2023-04-22T09:27:45.104Z,994.85
2023-04-22T09:28:45.095Z,994.87
2023-04-22T09:29:45.081Z,994.85
2023-04-22T09:30:45.078Z,994.87
2023-04-22T09:31:45.105Z,994.83
2023-04-22T09:32:45.087Z,994.86
2023-04-22T09:33:45.036Z,994.84
2023-04-22T09:34:45.035Z,994.80
2023-04-22T09:35:45.036Z,994.82
2023-04-22T09:36:45.016Z,994.84
2023-04-22T09:37:49.131Z,994.85
2023-04-22T09:38:45.070Z,994.83
2023-04-22T09:39:44.974Z,994.83
2023-04-22T09:40:44.958Z,994.81
2023-04-22T09:41:44.979Z,994.77
2023-04-22T09:42:44.930Z,994.78
2023-04-22T09:43:44.934Z,994.77
2023-04-22T09:44:44.945Z,994.66
2023-04-22T09:45:44.924Z,994.74
2023-04-22T09:46:44.924Z,994.71
2023-04-22T09:47:44.914Z,994.71
2023-04-22T09:48:44.916Z,994.73
2023-04-22T09:49:44.878Z,994.71
2023-04-22T09:50:44.866Z,994.72
2023-04-22T09:51:44.876Z,994.72
2023-04-22T09:52:44.834Z,994.68
2023-04-22T09:53:44.828Z,994.69
2023-04-22T09:54:44.836Z,994.70
2023-04-22T09:55:44.807Z,994.72
2023-04-22T09:56:44.848Z,994.72
2023-04-22T09:57:44.785Z,994.74
2023-04-22T09:58:44.857Z,994.75
2023-04-22T09:59:44.761Z,994.74
2023-04-22T10:00:44.746Z,994.70
2023-04-22T10:01:44.823Z,994.70
2023-04-22T10:02:44.801Z,994.69
2023-04-22T10:03:44.761Z,994.68
2023-04-22T10:04:44.707Z,994.64
2023-04-22T10:05:44.689Z,994.54
2023-04-22T10:06:44.703Z,994.63
2023-04-22T10:07:44.735Z,994.61
2023-04-22T10:08:44.669Z,994.61
2023-04-22T10:09:44.654Z,994.58
2023-04-22T10:10:44.643Z,994.57
2023-04-22T10:11:44.639Z,994.54
2023-04-22T10:12:44.618Z,994.51
2023-04-22T10:13:44.603Z,994.44
2023-04-22T10:14:44.607Z,994.46
2023-04-22T10:15:44.614Z,994.46
2023-04-22T10:16:44.827Z,994.47
2023-04-22T10:17:44.601Z,994.47
2023-04-22T10:18:44.553Z,994.50
2023-04-22T10:19:44.549Z,994.49
2023-04-22T10:20:44.528Z,994.46
2023-04-22T10:21:44.538Z,994.44
2023-04-22T10:22:44.513Z,994.40
2023-04-22T10:23:44.514Z,994.39
2023-04-22T10:24:44.502Z,994.37
2023-04-22T10:25:51.435Z,994.35
2023-04-22T10:26:44.478Z,994.39
2023-04-22T10:27:44.453Z,994.36
2023-04-22T10:28:44.470Z,994.33
2023-04-22T10:29:44.690Z,994.33
2023-04-22T10:30:44.454Z,994.32
2023-04-22T10:31:44.408Z,994.32
2023-04-22T10:32:44.484Z,994.32
2023-04-22T10:33:44.424Z,994.28
2023-04-22T10:34:44.412Z,994.30
2023-04-22T10:35:44.424Z,994.28
2023-04-22T10:36:44.356Z,994.26
2023-04-22T10:37:44.369Z,994.19
2023-04-22T10:38:44.349Z,994.18
2023-04-22T10:39:44.320Z,994.20
2023-04-22T10:40:44.314Z,994.20
2023-04-22T10:41:44.293Z,994.23
2023-04-22T10:42:44.386Z,994.22
2023-04-22T10:43:44.281Z,994.19
2023-04-22T10:44:44.280Z,994.20
2023-04-22T10:45:54.995Z,994.16
2023-04-22T10:46:44.425Z,994.14
2023-04-22T10:47:44.330Z,994.15
2023-04-22T10:48:44.238Z,994.12
2023-04-22T10:49:44.217Z,994.08
2023-04-22T10:50:44.204Z,994.11
2023-04-22T10:51:44.207Z,994.06
2023-04-22T10:52:44.203Z,994.08
2023-04-22T10:53:44.176Z,994.05
2023-04-22T10:54:44.179Z,994.05
2023-04-22T10:55:44.169Z,994.05
2023-04-22T10:57:44.132Z,994.03
2023-04-22T10:58:44.128Z,994.03
2023-04-22T10:59:44.120Z,994.04
2023-04-22T11:00:53.118Z,994.02
2023-04-22T11:01:44.115Z,994.00
2023-04-22T11:02:44.175Z,994.01
2023-04-22T11:03:44.183Z,994.00
2023-04-22T11:04:44.068Z,993.99
2023-04-22T11:05:44.141Z,994.00
2023-04-22T11:06:44.069Z,993.99
2023-04-22T11:07:44.062Z,993.99
2023-04-22T11:08:44.017Z,993.97
2023-04-22T11:09:44.008Z,993.99
2023-04-22T11:10:44.881Z,993.94
2023-04-22T11:11:43.987Z,993.94
2023-04-22T11:12:44.019Z,993.93
2023-04-22T11:13:44.077Z,993.95
2023-04-22T11:14:43.961Z,993.94
2023-04-22T11:15:43.946Z,993.90
2023-04-22T11:16:44.011Z,993.90
2023-04-22T11:17:43.958Z,993.83
2023-04-22T11:18:43.920Z,993.88
2023-04-22T11:19:43.894Z,993.90
2023-04-22T11:20:43.894Z,993.85
2023-04-22T11:21:43.885Z,993.91
2023-04-22T11:22:43.917Z,993.92
2023-04-22T11:23:43.856Z,993.90
2023-04-22T11:24:43.854Z,993.85
2023-04-22T11:25:43.848Z,993.86
2023-04-22T11:26:43.829Z,993.86
2023-04-22T11:27:43.837Z,993.83
2023-04-22T11:28:43.805Z,993.85
2023-04-22T11:29:43.798Z,993.85
2023-04-22T11:30:43.823Z,993.82
2023-04-22T11:31:43.828Z,993.83
2023-04-22T11:32:43.805Z,993.82
2023-04-22T11:33:43.778Z,993.81
2023-04-22T11:34:43.747Z,993.79
2023-04-22T11:35:43.722Z,993.79
2023-04-22T11:36:43.725Z,993.75
2023-04-22T11:37:43.717Z,993.78
2023-04-22T11:38:43.719Z,993.81
2023-04-22T11:39:56.266Z,993.82
2023-04-22T11:40:46.110Z,993.82
2023-04-22T11:41:43.660Z,993.81
2023-04-22T11:42:43.655Z,993.76
2023-04-22T11:43:43.667Z,993.80
2023-04-22T11:44:43.647Z,993.80
2023-04-22T11:45:47.943Z,993.81
2023-04-22T11:46:43.614Z,993.75
2023-04-22T11:47:43.664Z,993.76
2023-04-22T11:48:43.648Z,993.75
2023-04-22T11:49:43.606Z,993.73
2023-04-22T11:50:43.652Z,993.81
2023-04-22T11:51:43.601Z,993.73
2023-04-22T11:52:43.611Z,993.72
2023-04-22T11:53:43.615Z,993.69
2023-04-22T11:54:43.553Z,993.69
2023-04-22T11:55:43.528Z,993.72
2023-04-22T11:56:43.573Z,993.69
2023-04-22T11:57:43.508Z,993.68
2023-04-22T11:58:43.508Z,993.69
2023-04-22T11:59:43.477Z,993.74
2023-04-22T12:00:43.458Z,993.70
2023-04-22T12:01:43.447Z,993.68
2023-04-22T12:02:43.568Z,993.61
2023-04-22T12:03:43.645Z,993.67
2023-04-22T12:04:43.412Z,993.67
2023-04-22T12:05:43.419Z,993.59
2023-04-22T12:06:43.397Z,993.57
2023-04-22T12:07:43.388Z,993.66
2023-04-22T12:08:43.370Z,993.70
2023-04-22T12:09:43.364Z,993.70
2023-04-22T12:10:43.394Z,993.71
2023-04-22T12:11:43.338Z,993.73
2023-04-22T12:12:43.365Z,993.75
2023-04-22T12:13:43.388Z,993.75
2023-04-22T12:14:43.315Z,993.78
2023-04-22T12:15:43.484Z,993.77
2023-04-22T12:16:43.336Z,993.78
2023-04-22T12:17:43.466Z,993.78
2023-04-22T12:18:43.275Z,993.81
2023-04-22T12:19:43.258Z,993.81
2023-04-22T12:20:43.350Z,993.83
2023-04-22T12:21:43.256Z,993.84
2023-04-22T12:22:43.241Z,993.74
2023-04-22T12:23:43.272Z,993.84
2023-04-22T12:24:43.204Z,993.80
2023-04-22T12:25:43.207Z,993.82
2023-04-22T12:26:43.193Z,993.82
2023-04-22T12:27:43.176Z,993.83
2023-04-22T12:28:43.167Z,993.80
2023-04-22T12:29:43.160Z,993.83
2023-04-22T12:30:43.205Z,993.73
2023-04-22T12:31:43.150Z,993.82
2023-04-22T12:32:43.120Z,993.78
2023-04-22T12:33:43.172Z,993.79
2023-04-22T12:34:43.104Z,993.74
2023-04-22T12:35:43.105Z,993.65
2023-04-22T12:36:43.078Z,993.71
2023-04-22T12:37:43.090Z,993.67
2023-04-22T12:38:43.062Z,993.65
2023-04-22T12:39:43.069Z,993.69
2023-04-22T12:40:43.064Z,993.70
2023-04-22T12:41:43.027Z,993.70
2023-04-22T12:42:43.065Z,993.69
2023-04-22T12:43:43.011Z,993.73
2023-04-22T12:44:43.010Z,993.68
2023-04-22T12:45:43.000Z,993.73
2023-04-22T12:46:43.009Z,993.67
2023-04-22T12:47:43.025Z,993.68
2023-04-22T12:48:43.081Z,993.70
2023-04-22T12:49:44.849Z,993.68
2023-04-22T12:50:42.951Z,993.71
2023-04-22T12:51:42.941Z,993.63
2023-04-22T12:52:42.923Z,993.69
2023-04-22T12:53:42.898Z,993.72
2023-04-22T12:54:42.898Z,993.72
2023-04-22T12:55:45.372Z,993.74
2023-04-22T12:56:42.881Z,993.75
2023-04-22T12:57:42.926Z,993.73
2023-04-22T12:58:42.874Z,993.73
2023-04-22T12:59:42.883Z,993.73
2023-04-22T13:00:42.833Z,993.71
2023-04-22T13:01:42.849Z,993.73
2023-04-22T13:02:42.914Z,993.75
2023-04-22T13:03:42.921Z,993.74
2023-04-22T13:04:42.858Z,993.74
2023-04-22T13:05:42.793Z,993.73
2023-04-22T13:06:44.280Z,993.73
2023-04-22T13:07:42.975Z,993.74
2023-04-22T13:08:42.747Z,993.73
2023-04-22T13:09:42.763Z,993.73
2023-04-22T13:10:42.739Z,993.73
2023-04-22T13:11:42.745Z,993.68
2023-04-22T13:12:42.715Z,993.68
2023-04-22T13:13:42.720Z,993.67
2023-04-22T13:14:42.719Z,993.65
2023-04-22T13:15:42.732Z,993.63
2023-04-22T13:16:42.737Z,993.61
2023-04-22T13:17:43.379Z,993.58
2023-04-22T13:18:42.656Z,993.59
2023-04-22T13:19:42.612Z,993.53
2023-04-22T13:20:42.788Z,993.56
2023-04-22T13:21:42.591Z,993.54
2023-04-22T13:22:42.623Z,993.58
2023-04-22T13:23:42.580Z,993.55
2023-04-22T13:24:42.625Z,993.56
2023-04-22T13:25:42.548Z,993.49
2023-04-22T13:26:42.541Z,993.47
2023-04-22T13:27:42.569Z,993.45
2023-04-22T13:28:42.544Z,993.44
2023-04-22T13:29:42.691Z,993.43
2023-04-22T13:30:42.500Z,993.42
2023-04-22T13:31:42.572Z,993.40
2023-04-22T13:32:42.514Z,993.41
2023-04-22T13:33:42.461Z,993.35
2023-04-22T13:34:42.508Z,993.36
2023-04-22T13:35:42.509Z,993.33
2023-04-22T13:36:42.441Z,993.36
2023-04-22T13:37:42.424Z,993.36
2023-04-22T13:38:42.451Z,993.32
2023-04-22T13:39:42.733Z,993.38
2023-04-22T13:40:42.417Z,993.34
2023-04-22T13:41:42.462Z,993.33
2023-04-22T13:42:42.398Z,993.35
2023-04-22T13:43:42.396Z,993.34
2023-04-22T13:44:42.399Z,993.37
2023-04-22T13:45:42.524Z,993.34
2023-04-22T13:46:42.401Z,993.32
2023-04-22T13:47:42.385Z,993.35
2023-04-22T13:48:42.362Z,993.34
2023-04-22T13:49:42.424Z,993.33
2023-04-22T13:50:42.306Z,993.32
2023-04-22T13:51:42.285Z,993.31
2023-04-22T13:52:42.291Z,993.34
2023-04-22T13:53:42.274Z,993.31
2023-04-22T13:54:42.279Z,993.28
2023-04-22T13:55:42.344Z,993.30
2023-04-22T13:56:42.257Z,993.29
2023-04-22T13:57:42.228Z,993.28
2023-04-22T13:58:42.224Z,993.30
2023-04-22T13:59:42.458Z,993.22
2023-04-22T14:00:42.252Z,993.25
2023-04-22T14:01:42.194Z,993.23
2023-04-22T14:02:42.225Z,993.22
2023-04-22T14:03:42.244Z,993.22
2023-04-22T14:04:42.183Z,993.18
2023-04-22T14:05:42.140Z,993.28
2023-04-22T14:06:42.129Z,993.22
2023-04-22T14:07:42.114Z,993.23
2023-04-22T14:08:42.109Z,993.24
2023-04-22T14:09:42.419Z,993.22
2023-04-22T14:10:42.104Z,993.23
2023-04-22T14:11:42.077Z,993.22
2023-04-22T14:12:42.071Z,993.18
2023-04-22T14:13:42.053Z,993.25
2023-04-22T14:14:42.042Z,993.18
2023-04-22T14:15:42.054Z,993.21
2023-04-22T14:16:42.083Z,993.19
2023-04-22T14:17:42.054Z,993.20
2023-04-22T14:18:42.041Z,993.20
2023-04-22T14:19:42.392Z,993.18
2023-04-22T14:20:41.980Z,993.17
2023-04-22T14:21:41.980Z,993.15
2023-04-22T14:22:41.954Z,993.17
2023-04-22T14:23:41.948Z,993.17
2023-04-22T14:24:41.952Z,993.18
2023-04-22T14:25:41.933Z,993.17
2023-04-22T14:26:41.928Z,993.18
2023-04-22T14:27:41.901Z,993.21
2023-04-22T14:28:41.893Z,993.19
2023-04-22T14:29:42.362Z,993.22
2023-04-22T14:30:41.979Z,993.31
2023-04-22T14:31:41.861Z,993.27
2023-04-22T14:32:41.860Z,993.28
2023-04-22T14:33:41.841Z,993.24
2023-04-22T14:34:41.846Z,993.28
2023-04-22T14:35:41.822Z,993.27
2023-04-22T14:36:41.802Z,993.25
2023-04-22T14:37:41.805Z,993.26
2023-04-22T14:38:41.778Z,993.25
2023-04-22T14:39:42.218Z,993.24
2023-04-22T14:40:41.760Z,993.25
2023-04-22T14:41:41.798Z,993.25
2023-04-22T14:42:41.739Z,993.24
2023-04-22T14:43:41.741Z,993.24
2023-04-22T14:44:41.767Z,993.26
2023-04-22T14:45:41.757Z,993.25
2023-04-22T14:46:41.837Z,993.27
2023-04-22T14:47:41.715Z,993.27
2023-04-22T14:48:41.679Z,993.26
2023-04-22T14:49:41.969Z,993.25
2023-04-22T14:50:41.657Z,993.29
2023-04-22T14:51:41.654Z,993.28
2023-04-22T14:52:41.638Z,993.28
2023-04-22T14:53:41.633Z,993.27
2023-04-22T14:54:41.639Z,993.31
2023-04-22T14:55:41.603Z,993.28
2023-04-22T14:56:41.582Z,993.32
2023-04-22T14:57:41.621Z,993.31
2023-04-22T14:58:41.591Z,993.33
2023-04-22T14:59:41.890Z,993.34
2023-04-22T15:00:41.549Z,993.35
2023-04-22T15:01:41.610Z,993.37
2023-04-22T15:02:41.686Z,993.39
2023-04-22T15:03:41.995Z,993.41
2023-04-22T15:04:41.514Z,993.40
2023-04-22T15:05:41.512Z,993.41
2023-04-22T15:06:41.654Z,993.41
2023-04-22T15:07:41.486Z,993.42
2023-04-22T15:08:41.462Z,993.42
2023-04-22T15:09:41.856Z,993.44
2023-04-22T15:10:41.445Z,993.45
2023-04-22T15:11:41.430Z,993.44
2023-04-22T15:12:41.417Z,993.45
2023-04-22T15:13:41.412Z,993.44
2023-04-22T15:14:41.404Z,993.42
2023-04-22T15:15:41.438Z,993.47
2023-04-22T15:16:41.379Z,993.45
2023-04-22T15:17:41.436Z,993.45
2023-04-22T15:18:41.370Z,993.42
2023-04-22T15:19:41.665Z,993.45
2023-04-22T15:20:41.327Z,993.43
2023-04-22T15:21:41.326Z,993.44
2023-04-22T15:22:41.312Z,993.45
2023-04-22T15:23:41.304Z,993.45
2023-04-22T15:24:41.326Z,993.46
2023-04-22T15:25:41.290Z,993.45
2023-04-22T15:26:41.312Z,993.46
2023-04-22T15:27:41.267Z,993.48
2023-04-22T15:28:41.252Z,993.50
2023-04-22T15:29:41.477Z,993.51
2023-04-22T15:30:41.220Z,993.51
2023-04-22T15:31:41.256Z,993.50
2023-04-22T15:32:41.243Z,993.52
2023-04-22T15:33:41.201Z,993.54
2023-04-22T15:34:41.210Z,993.55
2023-04-22T15:35:41.173Z,993.57
2023-04-22T15:36:41.178Z,993.59
2023-04-22T15:37:41.160Z,993.57
2023-04-22T15:38:41.139Z,993.61
2023-04-22T15:39:41.444Z,993.60
2023-04-22T15:40:41.119Z,993.60
2023-04-22T15:41:41.124Z,993.62
2023-04-22T15:42:41.093Z,993.61
2023-04-22T15:43:41.090Z,993.60
2023-04-22T15:44:42.566Z,993.61
2023-04-22T15:45:41.081Z,993.61
2023-04-22T15:46:41.081Z,993.64
2023-04-22T15:47:41.208Z,993.64
2023-04-22T15:48:41.219Z,993.65
2023-04-22T15:49:41.392Z,993.67
2023-04-22T15:50:41.045Z,993.67
2023-04-22T15:51:41.087Z,993.64
2023-04-22T15:52:40.986Z,993.69
2023-04-22T15:53:40.979Z,993.69
2023-04-22T15:54:41.016Z,993.74
2023-04-22T15:55:40.961Z,993.80
2023-04-22T15:56:40.947Z,993.80
2023-04-22T15:57:40.961Z,993.87
2023-04-22T15:58:40.920Z,993.87
2023-04-22T15:59:41.266Z,993.90
2023-04-22T16:00:40.899Z,993.95
2023-04-22T16:01:41.178Z,993.93
2023-04-22T16:02:41.080Z,993.93
2023-04-22T16:03:40.999Z,993.93
2023-04-22T16:04:40.915Z,993.95
2023-04-22T16:05:40.846Z,993.94
2023-04-22T16:06:40.839Z,993.98
2023-04-22T16:07:40.836Z,994.02
2023-04-22T16:08:40.828Z,993.99
2023-04-22T16:09:41.107Z,994.02
2023-04-22T16:10:40.808Z,994.04
2023-04-22T16:11:40.787Z,994.07
2023-04-22T16:12:40.764Z,994.13
2023-04-22T16:13:40.779Z,994.12
2023-04-22T16:14:40.744Z,994.05
2023-04-22T16:15:40.744Z,994.05
2023-04-22T16:16:40.763Z,994.05
2023-04-22T16:17:40.750Z,994.09
2023-04-22T16:18:43.553Z,994.10
2023-04-22T16:19:40.868Z,994.14
2023-04-22T16:20:40.683Z,994.10
2023-04-22T16:21:40.677Z,994.13
2023-04-22T16:22:40.675Z,994.11
2023-04-22T16:23:40.710Z,994.10
2023-04-22T16:24:43.764Z,994.18
2023-04-22T16:25:40.646Z,994.13
2023-04-22T16:26:40.636Z,994.17
2023-04-22T16:27:40.624Z,994.19
2023-04-22T16:28:40.624Z,994.18
2023-04-22T16:29:40.915Z,994.18